Time;durP1;ratioP1;P1;durP2;ratioP2;P2;SDS_P1;SDS_P2;PMS_P1;PMS_P2;Temp;Humidity;BMP_temperature;BMP_pressure;BME280_temperature;BME280_humidity;BME280_pressure;Samples;Min_cycle;Max_cycle;Signal;HPM_P1;HPM_P2
2021/10/16 00:00:33;;;;;;;12.23;4.32;;;;;;;10.19;80.00;102382.16;5034391;28;20078;-62
2021/10/16 00:02:58;;;;;;;15.95;4.30;;;;;;;10.17;78.52;102385.72;5033628;28;20489;-63
2021/10/16 00:05:24;;;;;;;15.70;4.25;;;;;;;10.14;79.04;102380.50;5033668;28;20119;-62
2021/10/16 00:07:49;;;;;;;18.42;3.72;;;;;;;10.13;79.59;102384.03;5033516;28;20016;-62
2021/10/16 00:10:14;;;;;;;10.52;3.55;;;;;;;10.15;79.45;102387.53;5033881;28;20091;-63
2021/10/16 00:12:40;;;;;;;12.18;4.07;;;;;;;10.16;79.46;102388.41;5034015;28;20033;-62
2021/10/16 00:15:06;;;;;;;15.35;3.97;;;;;;;10.14;79.94;102388.44;5034031;28;20033;-63
2021/10/16 00:17:32;;;;;;;13.15;3.78;;;;;;;10.13;78.73;102377.88;5033133;28;20028;-61
2021/10/16 00:19:57;;;;;;;12.65;3.78;;;;;;;10.13;79.09;102377.88;5032601;28;20025;-62
2021/10/16 00:22:22;;;;;;;12.77;4.07;;;;;;;10.13;79.03;102381.38;5033513;28;20033;-63
2021/10/16 00:24:48;;;;;;;14.02;4.03;;;;;;;10.14;79.35;102383.13;5033357;28;20128;-62
2021/10/16 00:27:14;;;;;;;13.07;3.78;;;;;;;10.13;79.13;102373.44;5032619;28;20035;-63
2021/10/16 00:29:40;;;;;;;13.05;3.55;;;;;;;10.14;79.58;102383.13;5032019;28;20075;-63
2021/10/16 00:32:05;;;;;;;13.10;3.40;;;;;;;10.16;79.17;102381.31;5033467;28;20096;-61
2021/10/16 00:34:30;;;;;;;11.82;3.55;;;;;;;10.18;78.70;102381.31;5033272;28;20052;-60
2021/10/16 00:36:56;;;;;;;11.13;3.35;;;;;;;10.16;79.30;102381.31;5033319;28;20504;-63
2021/10/16 00:39:21;;;;;;;11.70;3.88;;;;;;;10.15;78.71;102371.66;5032734;28;20040;-62
2021/10/16 00:41:47;;;;;;;13.23;3.83;;;;;;;10.12;79.74;102373.47;5033108;28;20021;-60
2021/10/16 00:44:23;;;;;;;13.38;3.75;;;;;;;10.06;80.50;102373.59;5032854;28;20034;-62
2021/10/16 00:46:50;;;;;;;12.68;3.80;;;;;;;10.01;81.31;102373.66;5033120;28;20591;-63
2021/10/16 00:49:16;;;;;;;15.93;3.88;;;;;;;9.99;81.28;102376.34;5032563;28;20030;-60
2021/10/16 00:51:43;;;;;;;10.20;3.17;;;;;;;9.97;81.82;102374.63;5032881;28;20075;-62
2021/10/16 00:54:10;;;;;;;11.63;4.28;;;;;;;9.95;82.41;102379.09;5033183;28;20045;-63
2021/10/16 00:56:37;;;;;;;10.77;3.75;;;;;;;9.91;82.26;102367.66;5033279;28;20071;-63
2021/10/16 00:59:04;;;;;;;12.02;3.33;;;;;;;9.86;82.03;102374.81;5032870;28;20025;-63
2021/10/16 01:01:33;;;;;;;8.82;3.40;;;;;;;9.84;82.12;102374.81;5032224;28;20026;-62
2021/10/16 01:03:59;;;;;;;12.18;3.28;;;;;;;9.79;82.34;102373.16;5032444;28;20363;-62
2021/10/16 01:06:25;;;;;;;11.68;3.47;;;;;;;9.77;83.60;102377.59;5033241;28;20044;-63
2021/10/16 01:08:52;;;;;;;13.35;3.58;;;;;;;9.83;82.06;102377.50;5033042;28;20385;-63
2021/10/16 01:11:19;;;;;;;10.60;2.97;;;;;;;9.96;78.81;102375.50;5032226;28;20113;-61
2021/10/16 01:13:44;;;;;;;13.40;3.65;;;;;;;10.04;77.56;102375.38;5032789;28;20386;-62
2021/10/16 01:16:11;;;;;;;10.38;3.25;;;;;;;10.06;77.56;102370.94;5032658;28;20025;-63
2021/10/16 01:18:36;;;;;;;12.57;3.13;;;;;;;10.07;78.15;102373.56;5032628;28;20108;-60
2021/10/16 01:21:04;;;;;;;10.88;3.03;;;;;;;10.08;77.79;102370.00;5032442;28;20129;-60
2021/10/16 01:23:32;;;;;;;13.85;3.08;;;;;;;10.07;77.07;102367.41;5032058;28;20025;-62
2021/10/16 01:25:59;;;;;;;8.57;2.70;;;;;;;10.09;76.72;102365.56;5032480;28;20045;-61
2021/10/16 01:28:24;;;;;;;15.50;3.55;;;;;;;10.08;77.03;102370.00;5032922;28;20065;-63
2021/10/16 01:30:52;;;;;;;11.85;2.88;;;;;;;10.07;76.20;102357.66;5032503;28;20111;-61
2021/10/16 01:33:18;;;;;;;10.55;2.88;;;;;;;10.08;76.29;102358.56;5032104;28;20022;-61
2021/10/16 01:35:59;;;;;;;12.02;3.03;;;;;;;10.08;76.59;102355.91;5032111;28;20029;-63
2021/10/16 01:38:25;;;;;;;14.27;3.60;;;;;;;10.11;75.86;102362.00;5032548;28;20025;-61
2021/10/16 01:40:51;;;;;;;10.55;2.95;;;;;;;10.11;75.90;102358.50;5032643;28;20044;-62
2021/10/16 01:43:17;;;;;;;12.27;3.38;;;;;;;10.10;75.91;102362.91;5031325;28;20048;-60
2021/10/16 01:45:42;;;;;;;12.30;3.10;;;;;;;10.11;76.26;102361.13;5017151;28;20389;-61
2021/10/16 01:48:07;;;;;;;11.02;3.10;;;;;;;10.13;76.27;102362.00;5031367;28;20120;-61
2021/10/16 01:50:38;;;;;;;14.85;3.53;;;;;;;10.12;76.79;102355.81;5032332;28;20065;-62
2021/10/16 01:53:10;;;;;;;16.83;3.80;;;;;;;10.17;75.52;102358.38;5032378;28;20025;-62
2021/10/16 01:55:36;;;;;;;13.27;3.47;;;;;;;10.15;76.23;102346.94;5031852;28;20047;-60
2021/10/16 01:58:05;;;;;;;14.95;3.40;;;;;;;10.14;76.33;102347.81;5035932;28;20473;-63
2021/10/16 02:00:30;;;;;;;9.80;2.90;;;;;;;10.09;75.87;102345.28;5036467;28;20033;-63
2021/10/16 02:02:56;;;;;;;12.45;3.25;;;;;;;10.02;76.06;102342.78;5036266;28;20088;-63
2021/10/16 02:05:21;;;;;;;12.05;3.10;;;;;;;9.88;76.75;102345.69;5035094;28;20025;-60
2021/10/16 02:07:46;;;;;;;15.20;3.88;;;;;;;9.77;78.64;102346.75;5036369;28;20022;-60
2021/10/16 02:10:12;;;;;;;9.52;3.10;;;;;;;9.70;78.81;102349.53;5036168;28;20397;-63
2021/10/16 02:12:38;;;;;;;12.50;3.50;;;;;;;9.65;78.79;102342.53;5036075;28;20056;-60
2021/10/16 02:15:04;;;;;;;11.98;3.13;;;;;;;9.61;79.35;102345.25;5035840;28;20029;-63
2021/10/16 02:17:29;;;;;;;15.07;3.95;;;;;;;9.60;79.33;102346.16;5035696;28;20033;-61
2021/10/16 02:19:54;;;;;;;12.05;3.10;;;;;;;9.59;79.34;102334.69;5036027;28;20072;-63
2021/10/16 02:22:20;;;;;;;9.48;3.83;;;;;;;9.58;79.07;102342.63;5035946;28;20035;-60
2021/10/16 02:24:45;;;;;;;13.52;3.28;;;;;;;9.55;79.84;102340.06;5035483;28;20520;-61
2021/10/16 02:27:10;;;;;;;13.07;3.45;;;;;;;9.56;80.30;102339.16;5035538;28;20036;-62
2021/10/16 02:29:36;;;;;;;16.30;4.07;;;;;;;9.57;80.92;102348.84;5035860;28;20071;-61
2021/10/16 02:32:01;;;;;;;15.60;3.17;;;;;;;9.58;80.52;102346.19;5035829;28;20123;-62
2021/10/16 02:34:26;;;;;;;11.48;3.45;;;;;;;9.61;80.98;102335.53;5035877;28;20018;-63
2021/10/16 02:36:52;;;;;;;11.93;3.58;;;;;;;9.65;80.48;102339.91;5035159;28;20033;-61
2021/10/16 02:39:17;;;;;;;14.25;3.50;;;;;;;9.67;80.71;102331.94;5035426;28;20075;-61
2021/10/16 02:41:42;;;;;;;14.93;3.78;;;;;;;9.68;80.82;102338.97;5035622;28;20401;-61
2021/10/16 02:44:08;;;;;;;10.25;3.30;;;;;;;9.69;81.03;102338.03;5035474;28;20022;-63
2021/10/16 02:46:33;;;;;;;14.45;3.60;;;;;;;9.68;81.09;102350.41;5035191;28;20022;-63
2021/10/16 02:48:58;;;;;;;11.57;3.53;;;;;;;9.71;80.74;102352.13;5035090;28;20067;-62
2021/10/16 02:51:24;;;;;;;11.25;3.40;;;;;;;9.74;80.44;102346.78;5035304;28;20044;-62
2021/10/16 02:53:49;;;;;;;13.98;4.03;;;;;;;9.73;80.97;102342.41;5035063;28;20033;-61
2021/10/16 02:56:14;;;;;;;18.10;3.72;;;;;;;9.73;80.81;102352.09;5035603;28;20025;-61
2021/10/16 02:58:40;;;;;;;12.52;3.65;;;;;;;9.74;80.90;102346.78;5034637;28;20496;-62
2021/10/16 03:01:05;;;;;;;14.30;3.47;;;;;;;9.75;81.21;102345.88;5035352;28;20104;-61
2021/10/16 03:03:30;;;;;;;11.07;3.53;;;;;;;9.73;81.53;102353.00;5035153;28;20104;-63
2021/10/16 03:05:55;;;;;;;15.43;4.38;;;;;;;9.74;81.29;102351.22;5035059;28;20477;-63
2021/10/16 03:08:21;;;;;;;12.13;3.50;;;;;;;9.74;80.97;102353.84;5033384;28;20026;-63
2021/10/16 03:10:46;;;;;;;17.23;3.90;;;;;;;9.73;80.82;102347.69;5034770;28;20033;-63
2021/10/16 03:13:11;;;;;;;11.65;3.38;;;;;;;9.71;79.97;102356.56;5034991;28;20029;-63
2021/10/16 03:15:37;;;;;;;9.18;3.53;;;;;;;9.70;80.25;102360.09;5034952;28;20040;-62
2021/10/16 03:18:02;;;;;;;14.52;3.60;;;;;;;9.71;80.15;102357.41;5034642;28;20028;-63
2021/10/16 03:20:27;;;;;;;11.65;3.63;;;;;;;9.67;80.21;102356.59;5034416;28;20032;-63
2021/10/16 03:22:53;;;;;;;14.75;3.53;;;;;;;9.63;80.36;102356.66;5034403;28;20117;-62
2021/10/16 03:25:18;;;;;;;9.73;3.38;;;;;;;9.58;80.46;102362.03;5034689;28;20091;-63
2021/10/16 03:27:43;;;;;;;11.57;3.42;;;;;;;9.57;80.80;102352.34;5034952;28;20026;-63
2021/10/16 03:30:09;;;;;;;10.48;3.72;;;;;;;9.52;81.03;102356.84;5034331;28;20052;-63
2021/10/16 03:32:34;;;;;;;17.45;3.75;;;;;;;9.51;80.93;102349.81;5034390;28;20030;-63
2021/10/16 03:34:59;;;;;;;15.88;4.30;;;;;;;9.47;81.39;102346.34;5034280;28;20080;-63
2021/10/16 03:37:25;;;;;;;11.30;3.33;;;;;;;9.44;81.71;102341.09;5034360;28;20033;-63
2021/10/16 03:39:50;;;;;;;12.23;3.40;;;;;;;9.40;81.20;102341.16;5033935;28;20064;-62
2021/10/16 03:42:15;;;;;;;12.73;3.25;;;;;;;9.33;81.14;102343.94;5034613;28;20416;-61
2021/10/16 03:44:41;;;;;;;10.52;4.05;;;;;;;9.26;81.00;102334.34;5034387;28;20075;-63
2021/10/16 03:47:06;;;;;;;13.00;3.22;;;;;;;9.17;81.65;102327.41;5034455;28;20029;-63
2021/10/16 03:49:31;;;;;;;9.57;3.33;;;;;;;9.09;81.54;102339.00;5034134;28;20115;-63
2021/10/16 03:51:57;;;;;;;12.13;3.25;;;;;;;8.96;81.92;102333.88;5033874;28;20037;-61
2021/10/16 03:54:22;;;;;;;10.35;3.25;;;;;;;8.85;82.91;102334.03;5034269;28;20438;-61
2021/10/16 03:56:47;;;;;;;11.73;3.63;;;;;;;8.76;83.59;102336.81;5034333;28;20029;-63
2021/10/16 03:59:13;;;;;;;13.00;3.20;;;;;;;8.66;83.58;102337.81;5034483;28;20116;-62
2021/10/16 04:01:38;;;;;;;16.92;3.50;;;;;;;8.58;84.52;102337.03;5033970;28;20033;-63
2021/10/16 04:04:03;;;;;;;11.77;3.60;;;;;;;8.50;84.63;102337.13;5033553;28;20029;-61
2021/10/16 04:06:29;;;;;;;12.18;3.38;;;;;;;8.44;84.24;102334.53;5034039;28;20029;-60
2021/10/16 04:08:54;;;;;;;13.85;3.05;;;;;;;8.33;85.68;102338.16;5033855;28;20408;-63
2021/10/16 04:11:19;;;;;;;14.35;3.60;;;;;;;8.27;85.95;102335.59;5033409;28;20037;-62
2021/10/16 04:13:44;;;;;;;11.13;3.08;;;;;;;8.26;86.07;102332.97;5033799;28;20056;-63
2021/10/16 04:16:10;;;;;;;11.65;3.55;;;;;;;8.24;85.61;102329.50;5033936;28;20032;-63
2021/10/16 04:18:35;;;;;;;11.20;3.40;;;;;;;8.18;86.55;102330.41;5033567;28;20049;-63
2021/10/16 04:21:00;;;;;;;10.75;3.05;;;;;;;8.12;87.10;102331.38;5033798;28;20036;-60
2021/10/16 04:23:26;;;;;;;12.45;4.00;;;;;;;8.08;86.42;102337.56;5033260;28;20033;-61
2021/10/16 04:25:51;;;;;;;10.05;3.17;;;;;;;8.03;87.05;102334.97;5032878;28;20056;-60
2021/10/16 04:28:16;;;;;;;10.93;3.22;;;;;;;8.00;87.03;102339.41;5033705;28;20499;-62
2021/10/16 04:30:42;;;;;;;12.27;3.33;;;;;;;7.96;87.11;102337.69;5033683;28;20432;-62
2021/10/16 04:33:07;;;;;;;10.25;3.10;;;;;;;7.94;87.79;102340.34;5032997;28;20359;-62
2021/10/16 04:35:32;;;;;;;9.63;3.00;;;;;;;7.98;87.89;102342.06;5033110;28;20044;-62
2021/10/16 04:37:58;;;;;;;10.50;3.00;;;;;;;8.09;87.83;102338.44;5033762;28;20472;-61
2021/10/16 04:40:26;;;;;;;11.55;3.00;;;;;;;8.17;87.52;102344.50;5032986;28;20044;-62
2021/10/16 04:42:53;;;;;;;8.60;2.95;;;;;;;8.22;87.37;102345.31;5032925;28;20029;-61
2021/10/16 04:45:20;;;;;;;12.32;2.90;;;;;;;8.20;86.97;102345.34;5032899;28;20033;-61
2021/10/16 04:47:46;;;;;;;8.85;2.95;;;;;;;8.18;86.88;102348.88;5033560;28;20127;-63
2021/10/16 04:50:12;;;;;;;15.93;3.40;;;;;;;8.11;87.27;102347.22;5033231;28;20507;-61
2021/10/16 04:52:37;;;;;;;9.73;3.10;;;;;;;8.03;87.04;102339.34;5033118;28;20025;-59
2021/10/16 04:55:04;;;;;;;10.50;2.78;;;;;;;7.90;87.27;102332.47;5032944;28;20473;-63
2021/10/16 04:57:29;;;;;;;11.70;3.25;;;;;;;7.82;87.78;102338.69;5032391;28;20067;-62
2021/10/16 04:59:55;;;;;;;11.63;3.78;;;;;;;7.70;88.93;102344.09;5032954;28;20393;-63
2021/10/16 05:02:20;;;;;;;13.13;3.00;;;;;;;7.68;90.30;102336.16;5033014;28;20149;-63
2021/10/16 05:04:45;;;;;;;14.68;3.25;;;;;;;7.71;90.57;102333.50;5032875;28;20029;-63
2021/10/16 05:07:11;;;;;;;13.15;2.97;;;;;;;7.81;90.79;102336.06;5032570;28;20033;-63
2021/10/16 05:09:36;;;;;;;11.73;3.17;;;;;;;7.86;91.10;102337.78;5032938;28;20034;-61
2021/10/16 05:12:01;;;;;;;11.60;3.20;;;;;;;7.95;90.41;102335.94;5032566;28;20029;-60
2021/10/16 05:14:27;;;;;;;14.88;3.30;;;;;;;8.01;89.89;102331.47;5032225;28;20038;-62
2021/10/16 05:16:52;;;;;;;8.85;3.13;;;;;;;8.01;89.78;102335.88;5032579;28;20172;-60
2021/10/16 05:19:17;;;;;;;9.27;3.40;;;;;;;8.01;89.67;102331.47;5032336;28;20087;-61
2021/10/16 05:21:43;;;;;;;12.27;3.17;;;;;;;8.01;90.53;102331.47;5032762;28;20045;-60
2021/10/16 05:24:08;;;;;;;12.57;2.97;;;;;;;8.07;90.63;102337.56;5031823;28;20092;-61
2021/10/16 05:26:34;;;;;;;11.68;3.50;;;;;;;8.13;90.53;102329.59;5021691;28;20033;-61
2021/10/16 05:28:59;;;;;;;12.23;3.10;;;;;;;8.18;90.30;102331.31;5025721;28;20036;-63
2021/10/16 05:31:25;;;;;;;12.65;3.17;;;;;;;8.29;89.62;102331.19;5032051;28;20115;-63
2021/10/16 05:33:50;;;;;;;12.38;2.97;;;;;;;8.40;88.85;102333.72;5032913;28;20032;-61
2021/10/16 05:36:15;;;;;;;11.20;3.20;;;;;;;8.51;88.51;102328.31;5032534;28;20026;-62
2021/10/16 05:38:41;;;;;;;9.70;2.70;;;;;;;8.57;87.12;102324.72;5032224;28;20026;-62
2021/10/16 05:41:06;;;;;;;16.05;3.00;;;;;;;8.64;86.88;102329.91;5032454;28;20045;-61
2021/10/16 05:43:32;;;;;;;12.32;3.47;;;;;;;8.69;87.08;102327.22;5031797;28;20064;-62
2021/10/16 05:45:58;;;;;;;9.63;3.10;;;;;;;8.68;86.22;102328.09;5032120;28;20087;-61
2021/10/16 05:48:24;;;;;;;10.07;3.08;;;;;;;8.72;86.12;102334.22;5032744;28;20032;-60
2021/10/16 05:50:49;;;;;;;12.90;3.00;;;;;;;8.72;86.22;102342.13;5032536;28;20069;-60
2021/10/16 05:53:14;;;;;;;12.38;3.25;;;;;;;8.72;85.48;102334.22;5032655;28;20473;-62
2021/10/16 05:55:39;;;;;;;15.00;3.13;;;;;;;8.72;85.21;102343.03;5031882;28;20156;-62
2021/10/16 05:58:05;;;;;;;12.07;3.00;;;;;;;8.69;85.18;102335.13;5031741;28;20481;-60
2021/10/16 06:00:30;;;;;;;11.68;3.00;;;;;;;8.69;85.47;102333.34;5032264;28;20026;-61
2021/10/16 06:02:56;;;;;;;12.52;3.20;;;;;;;8.69;85.62;102341.28;5032509;28;20105;-62
2021/10/16 06:05:22;;;;;;;11.65;2.92;;;;;;;8.68;85.44;102343.94;5032396;28;20026;-62
2021/10/16 06:07:47;;;;;;;9.05;2.88;;;;;;;8.71;85.52;102336.00;5032384;28;20030;-61
2021/10/16 06:10:12;;;;;;;10.13;3.17;;;;;;;8.73;85.04;102338.63;5031667;28;20018;-59
2021/10/16 06:12:38;;;;;;;10.07;2.92;;;;;;;8.69;85.50;102333.34;5031880;28;20424;-59
2021/10/16 06:15:04;;;;;;;13.05;3.25;;;;;;;8.69;85.41;102322.78;5031715;28;20092;-59
2021/10/16 06:17:29;;;;;;;10.32;2.85;;;;;;;8.68;86.29;102328.09;5031879;28;20037;-59
2021/10/16 06:19:54;;;;;;;11.93;3.13;;;;;;;8.71;85.97;102329.81;5031869;28;20389;-61
2021/10/16 06:22:19;;;;;;;8.82;3.22;;;;;;;8.76;85.32;102331.53;5031707;28;20096;-60
2021/10/16 06:24:45;;;;;;;9.75;2.90;;;;;;;8.81;85.70;102328.81;5031425;28;20080;-61
2021/10/16 06:27:10;;;;;;;9.07;2.78;;;;;;;8.83;85.73;102335.81;5031759;28;20026;-59
2021/10/16 06:29:35;;;;;;;14.77;3.30;;;;;;;8.87;85.21;102336.66;5031716;28;20433;-60
2021/10/16 06:32:01;;;;;;;9.27;3.13;;;;;;;8.93;85.32;102338.34;5031308;28;20033;-61
2021/10/16 06:34:26;;;;;;;12.32;3.58;;;;;;;8.95;85.31;102336.53;5031975;28;20104;-61
2021/10/16 06:36:51;;;;;;;12.35;3.10;;;;;;;8.99;86.01;102338.25;5032246;28;20470;-63
2021/10/16 06:39:17;;;;;;;12.55;3.17;;;;;;;9.06;85.76;102337.28;5031721;28;20045;-61
2021/10/16 06:41:42;;;;;;;12.75;2.80;;;;;;;9.14;85.54;102340.69;5032190;28;20453;-62
2021/10/16 06:44:07;;;;;;;10.35;3.03;;;;;;;9.21;85.20;102333.53;5033722;28;20075;-63
2021/10/16 06:46:32;;;;;;;9.25;2.75;;;;;;;9.28;84.08;102339.59;5035298;28;20101;-64
2021/10/16 06:48:58;;;;;;;13.38;3.05;;;;;;;9.36;83.80;102337.72;5031350;28;20377;-63
2021/10/16 06:51:23;;;;;;;11.02;2.80;;;;;;;9.38;83.71;102337.69;5035176;28;20025;-62
2021/10/16 06:53:48;;;;;;;12.77;3.10;;;;;;;9.44;83.92;102341.09;5034931;28;20049;-61
2021/10/16 06:56:14;;;;;;;13.32;2.90;;;;;;;9.50;84.11;102337.47;5035303;28;20100;-62
2021/10/16 06:58:39;;;;;;;14.40;3.75;;;;;;;9.56;84.33;102344.44;5035689;28;20380;-62
2021/10/16 07:01:04;;;;;;;15.43;3.08;;;;;;;9.65;82.88;102344.28;5035414;28;20046;-61
2021/10/16 07:03:30;;;;;;;13.40;3.13;;;;;;;9.72;83.22;102347.69;5033492;28;20391;-60
2021/10/16 07:05:56;;;;;;;10.80;3.20;;;;;;;9.77;83.83;102346.75;5034749;28;20030;-63
2021/10/16 07:08:25;;;;;;;8.88;3.00;;;;;;;9.85;83.18;102336.03;5035488;28;20111;-63
2021/10/16 07:10:51;;;;;;;13.25;3.30;;;;;;;10.01;81.70;102344.53;5035103;28;20022;-60
2021/10/16 07:13:16;;;;;;;10.80;3.00;;;;;;;10.11;81.20;102343.47;5035293;28;20071;-63
2021/10/16 07:15:41;;;;;;;8.68;2.78;;;;;;;10.18;80.92;102341.59;5034678;28;20097;-61
2021/10/16 07:18:06;;;;;;;10.90;2.90;;;;;;;10.30;80.60;102345.78;5034307;28;20040;-57
2021/10/16 07:20:32;;;;;;;10.43;2.83;;;;;;;10.39;80.17;102348.28;5035217;28;20018;-62
2021/10/16 07:22:57;;;;;;;18.40;3.15;;;;;;;10.46;80.01;102339.31;5033864;28;20036;-62
2021/10/16 07:25:22;;;;;;;15.15;3.72;;;;;;;10.51;79.74;102349.78;5033843;28;20382;-59
2021/10/16 07:27:51;;;;;;;13.48;2.85;;;;;;;10.52;79.60;102345.38;5034831;28;20037;-62
2021/10/16 07:30:17;;;;;;;8.75;2.88;;;;;;;10.53;79.50;102348.00;5034895;28;20264;-61
2021/10/16 07:32:45;;;;;;;13.02;2.97;;;;;;;10.54;79.65;102355.03;5034341;28;20026;-61
2021/10/16 07:35:10;;;;;;;16.38;3.45;;;;;;;10.57;79.82;102356.75;5034375;28;20040;-60
2021/10/16 07:37:35;;;;;;;14.57;3.35;;;;;;;10.60;79.35;102356.69;5024016;28;20413;-60
2021/10/16 07:40:01;;;;;;;17.48;3.65;;;;;;;10.63;79.41;102354.84;5016921;28;20373;-61
2021/10/16 07:42:26;;;;;;;12.75;3.25;;;;;;;10.67;79.64;102357.44;5034355;28;20048;-60
2021/10/16 07:44:51;;;;;;;10.52;3.38;;;;;;;10.66;79.62;102361.84;5034287;28;20072;-59
2021/10/16 07:47:17;;;;;;;14.43;3.47;;;;;;;10.65;79.82;102363.66;5033513;28;20048;-60
2021/10/16 07:49:42;;;;;;;12.00;3.53;;;;;;;10.67;79.86;102355.66;5034316;28;20018;-62
2021/10/16 07:52:07;;;;;;;12.27;3.50;;;;;;;10.71;79.34;102361.78;5033017;28;20021;-60
2021/10/16 07:54:33;;;;;;;11.07;3.42;;;;;;;10.75;79.47;102359.00;5027682;28;20036;-62
2021/10/16 07:57:01;;;;;;;17.30;3.35;;;;;;;10.76;79.57;102373.16;5033738;28;20508;-61
2021/10/16 07:59:27;;;;;;;10.57;3.20;;;;;;;10.76;79.75;102367.84;5034582;28;20048;-62
2021/10/16 08:01:52;;;;;;;9.93;3.50;;;;;;;10.77;79.61;102365.16;5032588;28;20465;-63
2021/10/16 08:04:17;;;;;;;12.80;3.03;;;;;;;10.76;79.58;102371.34;5033242;28;20037;-58
2021/10/16 08:06:42;;;;;;;16.63;3.63;;;;;;;10.79;79.67;102366.00;5034340;28;20035;-61
2021/10/16 08:09:08;;;;;;;11.05;3.50;;;;;;;10.79;80.27;102373.06;5034239;28;20024;-59
2021/10/16 08:11:34;;;;;;;11.25;3.13;;;;;;;10.86;79.91;102366.75;5016243;28;20026;-62
2021/10/16 08:13:59;;;;;;;13.25;3.08;;;;;;;10.90;79.53;102371.06;5014493;28;20107;-60
2021/10/16 08:16:24;;;;;;;12.70;4.07;;;;;;;10.91;79.20;102364.00;5031695;28;20489;-57
2021/10/16 08:18:50;;;;;;;10.40;3.55;;;;;;;10.93;78.95;102367.47;5033327;28;20064;-60
2021/10/16 08:21:15;;;;;;;14.63;3.95;;;;;;;10.91;79.05;102367.53;5033993;28;20105;-60
2021/10/16 08:23:40;;;;;;;14.45;3.88;;;;;;;10.93;79.07;102371.03;5031794;28;20636;-62
2021/10/16 08:26:06;;;;;;;15.27;3.60;;;;;;;10.90;79.14;102371.06;5030231;28;20416;-62
2021/10/16 08:28:31;;;;;;;12.68;3.33;;;;;;;10.92;79.45;102369.28;5032886;28;20032;-62
2021/10/16 08:31:00;;;;;;;10.48;3.17;;;;;;;10.97;78.97;102375.34;5032952;28;20451;-63
2021/10/16 08:33:26;;;;;;;11.85;3.78;;;;;;;11.01;78.67;102372.59;5033094;28;20062;-63
2021/10/16 08:35:52;;;;;;;11.93;3.15;;;;;;;11.09;78.27;102375.97;5032896;28;20033;-61
2021/10/16 08:38:18;;;;;;;11.85;3.20;;;;;;;11.15;78.22;102374.06;5031176;28;20107;-61
2021/10/16 08:40:44;;;;;;;19.75;3.80;;;;;;;11.21;78.10;102369.53;5031811;28;20025;-62
2021/10/16 08:43:09;;;;;;;13.30;3.50;;;;;;;11.30;77.54;102379.91;5032361;28;20036;-63
2021/10/16 08:45:36;;;;;;;15.52;4.03;;;;;;;11.34;77.77;102378.06;5032940;28;20029;-62
2021/10/16 08:48:05;;;;;;;12.60;3.40;;;;;;;11.42;77.28;102384.03;5032630;28;20116;-62
2021/10/16 08:50:32;;;;;;;13.38;3.13;;;;;;;11.50;76.71;102386.53;5033551;28;20048;-62
2021/10/16 08:52:57;;;;;;;17.30;4.35;;;;;;;11.57;77.16;102383.72;5032810;28;20033;-61
2021/10/16 08:55:23;;;;;;;19.00;4.55;;;;;;;11.61;76.74;102385.38;5032820;28;20025;-61
2021/10/16 08:57:50;;;;;;;19.60;4.38;;;;;;;11.64;76.47;102385.28;5032909;28;20079;-59
2021/10/16 09:01:03;;;;;;;14.90;3.80;;;;;;;11.88;75.45;102390.91;5032684;28;20033;-61
2021/10/16 09:03:40;;;;;;;29.35;6.63;;;;;;;12.00;74.72;102396.84;4985184;28;20126;-60
2021/10/16 09:06:07;;;;;;;14.27;3.25;;;;;;;12.09;74.15;102401.91;4990862;28;20030;-59
2021/10/16 09:08:51;;;;;;;8.85;3.40;;;;;;;12.12;74.01;102401.81;4972283;28;20066;-61
2021/10/16 09:11:25;;;;;;;17.38;3.90;;;;;;;12.17;74.07;102391.06;4987063;28;20030;-62
2021/10/16 09:13:55;;;;;;;38.00;6.97;;;;;;;12.20;73.81;102396.28;4971940;28;20050;-59
2021/10/16 09:16:31;;;;;;;12.13;4.07;;;;;;;12.26;72.91;102391.72;4984001;28;20022;-61
2021/10/16 09:19:00;;;;;;;38.95;6.97;;;;;;;12.35;72.02;102393.22;4990475;28;20045;-60
2021/10/16 09:21:28;;;;;;;31.27;5.43;;;;;;;12.36;72.28;102394.09;4990454;28;20066;-59
2021/10/16 09:24:21;;;;;;;20.45;3.95;;;;;;;12.33;72.93;102397.72;4988584;28;20031;-63
2021/10/16 09:26:53;;;;;;;12.45;3.60;;;;;;;12.37;72.40;102393.19;4982103;28;20124;-62
2021/10/16 09:29:22;;;;;;;17.30;3.00;;;;;;;12.39;70.79;102388.69;4991002;28;20121;-63
2021/10/16 09:31:51;;;;;;;9.65;3.22;;;;;;;12.36;70.82;102392.31;4990709;28;20658;-61
2021/10/16 09:34:24;;;;;;;19.45;3.67;;;;;;;12.30;70.98;102384.50;4986242;28;20049;-63
2021/10/16 09:36:50;;;;;;;11.20;3.15;;;;;;;12.35;71.02;102384.38;4989874;28;20034;-62
2021/10/16 09:39:17;;;;;;;13.75;3.53;;;;;;;12.32;71.43;102388.00;5000297;28;20095;-61
2021/10/16 09:41:43;;;;;;;10.88;3.33;;;;;;;12.27;71.44;102385.47;5031520;28;20083;-63
2021/10/16 09:44:35;;;;;;;13.82;4.15;;;;;;;12.38;71.03;102385.19;5032077;28;20468;-60
2021/10/16 09:47:17;;;;;;;11.25;3.58;;;;;;;12.43;71.04;102390.38;5030272;28;20481;-61
2021/10/16 09:49:44;;;;;;;;;;;;;;;12.51;70.91;102396.34;5031873;28;20184;-60
2021/10/16 09:52:12;;;;;;;14.05;3.42;;;;;;;12.56;70.66;102394.41;5032133;28;19913;-62
2021/10/16 09:54:39;;;;;;;10.68;3.10;;;;;;;12.58;71.04;102387.28;5030325;28;20037;-61
2021/10/16 09:57:07;;;;;;;14.10;3.35;;;;;;;12.64;70.35;102390.69;5023655;28;20021;-60
2021/10/16 09:59:34;;;;;;;12.23;3.25;;;;;;;12.57;70.41;102398.81;5028156;28;20029;-61
2021/10/16 10:02:01;;;;;;;10.93;3.20;;;;;;;12.59;70.05;102401.44;5029537;28;20022;-60
2021/10/16 10:04:29;;;;;;;16.98;3.35;;;;;;;12.60;69.83;102400.53;5031167;28;20358;-63
2021/10/16 10:06:57;;;;;;;18.95;3.90;;;;;;;12.65;70.41;102395.06;5031991;28;20843;-62
2021/10/16 10:09:23;;;;;;;15.68;3.45;;;;;;;12.70;69.76;102398.47;5031930;28;20076;-61
2021/10/16 10:11:52;;;;;;;10.15;3.33;;;;;;;12.79;69.39;102398.22;5030973;28;20025;-61
2021/10/16 10:14:19;;;;;;;11.55;3.33;;;;;;;12.88;68.83;102403.25;5032466;28;20048;-61
2021/10/16 10:16:46;;;;;;;12.38;3.28;;;;;;;12.90;68.19;102403.19;5031855;28;20052;-63
2021/10/16 10:19:13;;;;;;;11.82;3.42;;;;;;;12.98;68.02;102397.66;5035811;28;20030;-62
2021/10/16 10:21:39;;;;;;;17.73;4.15;;;;;;;13.05;68.01;102408.06;5029406;28;20021;-62
2021/10/16 10:24:06;;;;;;;12.02;3.10;;;;;;;13.16;67.96;102394.44;5035529;28;20048;-61
2021/10/16 10:26:34;;;;;;;16.40;3.70;;;;;;;13.51;66.69;102391.63;5033910;28;20040;-62
2021/10/16 10:29:08;;;;;;;15.32;3.10;;;;;;;13.95;66.31;102377.75;5035021;28;20044;-59
2021/10/16 10:31:59;;;;;;;14.70;3.55;;;;;;;14.69;62.09;102380.44;5035360;28;20029;-58
2021/10/16 10:34:29;;;;;;;14.03;3.30;;;;;;;14.97;60.72;102376.75;5032270;28;20021;-60
2021/10/16 10:37:03;;;;;;;11.45;2.88;;;;;;;15.06;59.18;102384.38;5035302;28;20057;-60
2021/10/16 10:39:32;;;;;;;12.80;3.90;;;;;;;15.26;58.71;102382.75;5031100;28;20033;-60
2021/10/16 10:42:13;;;;;;;14.00;3.33;;;;;;;15.30;58.13;102382.53;5034964;28;20030;-60
2021/10/16 10:44:45;;;;;;;15.75;3.35;;;;;;;15.10;58.95;102377.13;5035246;28;20461;-58
2021/10/16 10:47:34;;;;;;;15.57;3.35;;;;;;;14.89;59.91;102369.88;5035719;28;20474;-60
2021/10/16 10:50:04;;;;;;;17.73;4.05;;;;;;;14.80;60.48;102370.25;5034175;28;20079;-61
2021/10/16 10:53:09;;;;;;;10.48;3.00;;;;;;;15.06;59.73;102376.38;5035503;28;20037;-60
2021/10/16 10:56:08;;;;;;;14.55;3.13;;;;;;;16.11;55.27;102369.41;5034944;28;20370;-59
2021/10/16 10:59:04;;;;;;;10.55;3.03;;;;;;;16.23;55.05;102376.03;5013456;28;20038;-60
2021/10/16 11:01:41;;;;;;;12.10;2.88;;;;;;;16.32;54.27;102369.41;4935942;29;20555;-59
2021/10/16 11:04:06;;;;;;;14.25;3.35;;;;;;;16.28;54.23;102368.66;4935723;29;20040;-61
2021/10/16 11:06:32;;;;;;;11.95;3.03;;;;;;;16.05;54.05;102369.69;4935850;29;20099;-60
2021/10/16 11:09:14;;;;;;;11.13;2.90;;;;;;;15.70;54.68;102372.91;4935721;29;20054;-61
2021/10/16 11:11:49;;;;;;;13.02;3.35;;;;;;;15.56;56.52;102367.25;4935685;29;20035;-61
2021/10/16 11:14:15;;;;;;;11.98;3.28;;;;;;;16.09;56.87;102365.94;4935926;29;20176;-61
2021/10/16 11:16:58;;;;;;;11.27;3.00;;;;;;;16.98;50.94;102376.22;4935925;29;20122;-61
2021/10/16 11:19:24;;;;;;;16.63;3.13;;;;;;;16.97;50.70;102364.66;4935451;29;20407;-62
2021/10/16 11:21:53;;;;;;;10.15;3.47;;;;;;;17.03;51.33;102372.41;4935408;29;20047;-60